sensor_id;sensor_type;location;lat;lon;timestamp;pressure;altitude;pressure_sealevel;temperature;humidity
6413;BME280;3239;48.714;9.472;2022-09-09T00:02:28;98351.47;;;13.21;100.00
6413;BME280;3239;48.714;9.472;2022-09-09T00:05:29;98357.16;;;13.23;100.00
6413;BME280;3239;48.714;9.472;2022-09-09T00:07:59;98368.25;;;13.30;100.00
6413;BME280;3239;48.714;9.472;2022-09-09T00:10:30;98370.78;;;13.49;100.00
6413;BME280;3239;48.714;9.472;2022-09-09T00:16:01;98354.59;;;13.04;100.00
6413;BME280;3239;48.714;9.472;2022-09-09T00:21:37;98358.03;;;12.97;100.00
6413;BME280;3239;48.714;9.472;2022-09-09T00:26:56;98379.59;;;12.93;100.00
6413;BME280;3239;48.714;9.472;2022-09-09T00:29:51;98378.84;;;13.06;100.00
6413;BME280;3239;48.714;9.472;2022-09-09T00:32:20;98373.41;;;13.13;100.00
6413;BME280;3239;48.714;9.472;2022-09-09T00:34:56;98365.41;;;13.23;100.00
6413;BME280;3239;48.714;9.472;2022-09-09T00:37:26;98356.63;;;13.24;100.00
6413;BME280;3239;48.714;9.472;2022-09-09T00:39:58;98352.94;;;13.22;100.00
6413;BME280;3239;48.714;9.472;2022-09-09T00:42:33;98346.38;;;13.25;100.00
6413;BME280;3239;48.714;9.472;2022-09-09T00:47:52;98342.78;;;13.37;100.00
6413;BME280;3239;48.714;9.472;2022-09-09T00:50:57;98339.94;;;13.22;100.00
6413;BME280;3239;48.714;9.472;2022-09-09T00:54:14;98346.63;;;13.14;100.00
6413;BME280;3239;48.714;9.472;2022-09-09T00:57:29;98353.00;;;13.29;100.00
6413;BME280;3239;48.714;9.472;2022-09-09T01:06:56;98351.19;;;13.32;100.00
6413;BME280;3239;48.714;9.472;2022-09-09T01:09:29;98352.78;;;13.27;100.00
6413;BME280;3239;48.714;9.472;2022-09-09T01:12:09;98361.94;;;13.22;100.00
6413;BME280;3239;48.714;9.472;2022-09-09T01:17:34;98359.63;;;13.34;100.00
6413;BME280;3239;48.714;9.472;2022-09-09T01:20:27;98355.94;;;13.31;100.00
6413;BME280;3239;48.714;9.472;2022-09-09T01:23:33;98350.31;;;13.37;100.00
6413;BME280;3239;48.714;9.472;2022-09-09T01:29:00;98339.50;;;13.39;100.00
6413;BME280;3239;48.714;9.472;2022-09-09T01:31:36;98337.28;;;13.37;100.00
6413;BME280;3239;48.714;9.472;2022-09-09T01:34:11;98332.66;;;13.32;100.00
6413;BME280;3239;48.714;9.472;2022-09-09T01:36:44;98332.47;;;13.30;100.00
6413;BME280;3239;48.714;9.472;2022-09-09T01:39:12;98326.44;;;13.32;100.00
6413;BME280;3239;48.714;9.472;2022-09-09T01:41:38;98318.31;;;13.26;100.00
6413;BME280;3239;48.714;9.472;2022-09-09T01:44:05;98327.06;;;13.17;100.00
6413;BME280;3239;48.714;9.472;2022-09-09T01:46:33;98329.25;;;13.19;100.00
6413;BME280;3239;48.714;9.472;2022-09-09T01:48:59;98332.34;;;13.15;100.00
6413;BME280;3239;48.714;9.472;2022-09-09T01:51:26;98334.91;;;13.13;100.00
6413;BME280;3239;48.714;9.472;2022-09-09T01:53:52;98331.28;;;13.18;100.00
6413;BME280;3239;48.714;9.472;2022-09-09T01:56:51;98333.22;;;13.10;100.00
6413;BME280;3239;48.714;9.472;2022-09-09T02:02:44;98334.41;;;13.02;100.00
6413;BME280;3239;48.714;9.472;2022-09-09T02:05:52;98336.22;;;12.99;100.00
6413;BME280;3239;48.714;9.472;2022-09-09T02:08:26;98329.25;;;12.98;100.00
6413;BME280;3239;48.714;9.472;2022-09-09T02:11:05;98342.38;;;12.92;100.00
6413;BME280;3239;48.714;9.472;2022-09-09T02:13:35;98348.06;;;12.94;100.00
6413;BME280;3239;48.714;9.472;2022-09-09T02:21:37;98359.75;;;12.87;100.00
6413;BME280;3239;48.714;9.472;2022-09-09T02:24:07;98365.66;;;12.91;100.00
6413;BME280;3239;48.714;9.472;2022-09-09T02:26:42;98370.25;;;12.76;100.00
6413;BME280;3239;48.714;9.472;2022-09-09T02:29:19;98378.91;;;12.80;100.00
6413;BME280;3239;48.714;9.472;2022-09-09T02:31:49;98382.59;;;12.82;100.00
6413;BME280;3239;48.714;9.472;2022-09-09T02:34:18;98366.19;;;12.90;100.00
6413;BME280;3239;48.714;9.472;2022-09-09T02:36:46;98368.72;;;12.88;100.00
6413;BME280;3239;48.714;9.472;2022-09-09T02:39:12;98358.78;;;12.85;100.00
6413;BME280;3239;48.714;9.472;2022-09-09T02:41:40;98363.75;;;12.86;100.00
6413;BME280;3239;48.714;9.472;2022-09-09T02:44:15;98361.53;;;12.85;100.00
6413;BME280;3239;48.714;9.472;2022-09-09T02:47:23;98365.50;;;12.63;100.00
6413;BME280;3239;48.714;9.472;2022-09-09T02:50:12;98363.75;;;12.53;100.00
6413;BME280;3239;48.714;9.472;2022-09-09T02:58:12;98377.25;;;12.64;100.00
6413;BME280;3239;48.714;9.472;2022-09-09T03:00:48;98378.72;;;12.65;100.00
6413;BME280;3239;48.714;9.472;2022-09-09T03:03:15;98383.50;;;12.64;100.00
6413;BME280;3239;48.714;9.472;2022-09-09T03:05:43;98385.69;;;12.66;100.00
6413;BME280;3239;48.714;9.472;2022-09-09T03:08:10;98373.03;;;12.63;100.00
6413;BME280;3239;48.714;9.472;2022-09-09T03:10:36;98363.31;;;12.62;100.00
6413;BME280;3239;48.714;9.472;2022-09-09T03:13:03;98367.13;;;12.59;100.00
6413;BME280;3239;48.714;9.472;2022-09-09T03:15:32;98372.41;;;12.57;100.00
6413;BME280;3239;48.714;9.472;2022-09-09T03:17:58;98384.66;;;12.56;100.00
6413;BME280;3239;48.714;9.472;2022-09-09T03:20:27;98384.97;;;12.65;100.00
6413;BME280;3239;48.714;9.472;2022-09-09T03:22:54;98386.03;;;12.62;100.00
6413;BME280;3239;48.714;9.472;2022-09-09T03:25:21;98393.94;;;12.66;100.00
6413;BME280;3239;48.714;9.472;2022-09-09T03:27:49;98389.63;;;12.70;100.00
6413;BME280;3239;48.714;9.472;2022-09-09T03:30:15;98400.09;;;12.59;100.00
6413;BME280;3239;48.714;9.472;2022-09-09T03:32:41;98400.88;;;12.46;100.00
6413;BME280;3239;48.714;9.472;2022-09-09T03:35:08;98397.19;;;12.31;100.00
6413;BME280;3239;48.714;9.472;2022-09-09T03:37:33;98409.97;;;12.41;100.00
6413;BME280;3239;48.714;9.472;2022-09-09T03:39:59;98421.28;;;12.38;100.00
6413;BME280;3239;48.714;9.472;2022-09-09T03:42:25;98429.63;;;12.45;100.00
6413;BME280;3239;48.714;9.472;2022-09-09T03:44:51;98435.09;;;12.58;100.00
6413;BME280;3239;48.714;9.472;2022-09-09T03:47:19;98420.75;;;12.39;100.00
6413;BME280;3239;48.714;9.472;2022-09-09T03:49:45;98422.84;;;12.46;100.00
6413;BME280;3239;48.714;9.472;2022-09-09T03:52:11;98427.81;;;12.35;100.00
6413;BME280;3239;48.714;9.472;2022-09-09T03:54:37;98425.19;;;12.29;100.00
6413;BME280;3239;48.714;9.472;2022-09-09T03:57:03;98440.81;;;12.34;100.00
6413;BME280;3239;48.714;9.472;2022-09-09T03:59:30;98438.19;;;12.42;100.00
6413;BME280;3239;48.714;9.472;2022-09-09T04:01:56;98436.72;;;12.41;100.00
6413;BME280;3239;48.714;9.472;2022-09-09T04:04:22;98437.66;;;12.43;100.00
6413;BME280;3239;48.714;9.472;2022-09-09T04:06:48;98419.25;;;12.51;100.00
6413;BME280;3239;48.714;9.472;2022-09-09T04:09:14;98420.81;;;12.60;100.00
6413;BME280;3239;48.714;9.472;2022-09-09T04:11:40;98411.19;;;12.53;100.00
6413;BME280;3239;48.714;9.472;2022-09-09T04:14:06;98407.09;;;12.47;100.00
6413;BME280;3239;48.714;9.472;2022-09-09T04:16:33;98409.53;;;12.37;100.00
6413;BME280;3239;48.714;9.472;2022-09-09T04:18:59;98405.31;;;12.36;100.00
6413;BME280;3239;48.714;9.472;2022-09-09T04:21:26;98406.25;;;12.39;100.00
6413;BME280;3239;48.714;9.472;2022-09-09T04:23:51;98410.72;;;12.42;100.00
6413;BME280;3239;48.714;9.472;2022-09-09T04:26:18;98404.91;;;12.32;100.00
6413;BME280;3239;48.714;9.472;2022-09-09T04:28:44;98405.84;;;12.22;100.00
6413;BME280;3239;48.714;9.472;2022-09-09T04:31:18;98415.16;;;12.32;100.00
6413;BME280;3239;48.714;9.472;2022-09-09T04:33:44;98402.69;;;12.31;100.00
6413;BME280;3239;48.714;9.472;2022-09-09T04:36:10;98405.97;;;12.29;100.00
6413;BME280;3239;48.714;9.472;2022-09-09T04:38:36;98412.41;;;12.19;100.00
6413;BME280;3239;48.714;9.472;2022-09-09T04:41:02;98404.38;;;12.21;100.00
6413;BME280;3239;48.714;9.472;2022-09-09T04:43:27;98407.75;;;12.27;100.00
6413;BME280;3239;48.714;9.472;2022-09-09T04:45:53;98404.06;;;12.24;100.00
6413;BME280;3239;48.714;9.472;2022-09-09T04:48:20;98406.81;;;12.24;100.00
6413;BME280;3239;48.714;9.472;2022-09-09T04:51:02;98414.00;;;12.27;100.00
6413;BME280;3239;48.714;9.472;2022-09-09T04:53:29;98419.91;;;12.31;100.00
6413;BME280;3239;48.714;9.472;2022-09-09T04:56:08;98417.69;;;12.30;100.00
6413;BME280;3239;48.714;9.472;2022-09-09T04:58:36;98424.97;;;12.40;100.00
6413;BME280;3239;48.714;9.472;2022-09-09T05:01:17;98425.94;;;12.30;100.00
6413;BME280;3239;48.714;9.472;2022-09-09T05:03:44;98428.47;;;12.28;100.00
6413;BME280;3239;48.714;9.472;2022-09-09T05:06:16;98436.59;;;12.33;100.00
6413;BME280;3239;48.714;9.472;2022-09-09T05:08:44;98429.94;;;12.29;100.00
6413;BME280;3239;48.714;9.472;2022-09-09T05:11:31;98438.41;;;12.31;100.00
6413;BME280;3239;48.714;9.472;2022-09-09T05:13:57;98443.25;;;12.38;100.00
6413;BME280;3239;48.714;9.472;2022-09-09T05:16:23;98442.41;;;12.43;100.00
6413;BME280;3239;48.714;9.472;2022-09-09T05:18:50;98445.13;;;12.56;100.00
6413;BME280;3239;48.714;9.472;2022-09-09T05:21:22;98446.06;;;12.58;100.00
6413;BME280;3239;48.714;9.472;2022-09-09T05:23:48;98449.25;;;12.62;100.00
6413;BME280;3239;48.714;9.472;2022-09-09T05:26:17;98457.63;;;12.57;100.00
6413;BME280;3239;48.714;9.472;2022-09-09T05:28:43;98458.25;;;12.63;100.00
6413;BME280;3239;48.714;9.472;2022-09-09T05:31:10;98455.59;;;12.70;100.00
6413;BME280;3239;48.714;9.472;2022-09-09T05:33:42;98451.03;;;12.73;100.00
6413;BME280;3239;48.714;9.472;2022-09-09T05:36:18;98447.34;;;12.57;100.00
6413;BME280;3239;48.714;9.472;2022-09-09T05:38:44;98434.31;;;12.71;100.00
6413;BME280;3239;48.714;9.472;2022-09-09T05:41:12;98439.50;;;12.74;100.00
6413;BME280;3239;48.714;9.472;2022-09-09T05:43:41;98444.03;;;12.72;100.00
6413;BME280;3239;48.714;9.472;2022-09-09T05:46:11;98445.25;;;12.50;100.00
6413;BME280;3239;48.714;9.472;2022-09-09T05:48:40;98444.69;;;12.65;100.00
6413;BME280;3239;48.714;9.472;2022-09-09T05:51:09;98454.31;;;12.71;100.00
6413;BME280;3239;48.714;9.472;2022-09-09T05:53:38;98458.75;;;12.74;100.00
6413;BME280;3239;48.714;9.472;2022-09-09T05:56:10;98460.25;;;12.62;100.00
6413;BME280;3239;48.714;9.472;2022-09-09T05:58:36;98458.97;;;12.63;100.00
6413;BME280;3239;48.714;9.472;2022-09-09T06:01:11;98459.50;;;12.75;100.00
6413;BME280;3239;48.714;9.472;2022-09-09T06:03:40;98479.34;;;13.07;100.00
6413;BME280;3239;48.714;9.472;2022-09-09T06:06:10;98467.63;;;13.27;100.00
6413;BME280;3239;48.714;9.472;2022-09-09T06:08:38;98454.94;;;13.24;100.00
6413;BME280;3239;48.714;9.472;2022-09-09T06:13:36;98450.28;;;12.98;100.00
6413;BME280;3239;48.714;9.472;2022-09-09T06:16:17;98446.03;;;13.31;100.00
6413;BME280;3239;48.714;9.472;2022-09-09T06:18:44;98431.34;;;13.49;100.00
6413;BME280;3239;48.714;9.472;2022-09-09T06:21:27;98425.56;;;13.39;100.00
6413;BME280;3239;48.714;9.472;2022-09-09T06:23:58;98409.38;;;13.15;100.00
6413;BME280;3239;48.714;9.472;2022-09-09T06:26:26;98408.34;;;13.05;100.00
6413;BME280;3239;48.714;9.472;2022-09-09T06:28:55;98416.81;;;13.28;100.00
6413;BME280;3239;48.714;9.472;2022-09-09T06:31:26;98432.34;;;13.38;100.00
6413;BME280;3239;48.714;9.472;2022-09-09T06:33:54;98422.66;;;13.45;100.00
6413;BME280;3239;48.714;9.472;2022-09-09T06:36:28;98409.38;;;13.56;100.00
6413;BME280;3239;48.714;9.472;2022-09-09T06:38:55;98399.38;;;13.94;100.00
6413;BME280;3239;48.714;9.472;2022-09-09T06:41:23;98391.19;;;14.37;100.00
6413;BME280;3239;48.714;9.472;2022-09-09T06:43:50;98362.41;;;14.18;100.00
6413;BME280;3239;48.714;9.472;2022-09-09T06:46:20;98352.63;;;14.37;100.00
6413;BME280;3239;48.714;9.472;2022-09-09T06:48:53;98327.69;;;14.50;100.00
6413;BME280;3239;48.714;9.472;2022-09-09T06:51:22;98300.75;;;15.01;100.00
6413;BME280;3239;48.714;9.472;2022-09-09T06:53:54;98258.28;;;15.96;100.00
6413;BME280;3239;48.714;9.472;2022-09-09T06:56:41;98218.28;;;15.65;100.00
6413;BME280;3239;48.714;9.472;2022-09-09T06:59:09;98201.25;;;15.84;100.00
6413;BME280;3239;48.714;9.472;2022-09-09T07:01:39;98178.78;;;15.87;100.00
6413;BME280;3239;48.714;9.472;2022-09-09T07:04:06;98161.69;;;16.13;100.00
6413;BME280;3239;48.714;9.472;2022-09-09T07:06:37;98148.81;;;16.65;100.00
6413;BME280;3239;48.714;9.472;2022-09-09T07:09:10;98128.03;;;16.81;100.00
6413;BME280;3239;48.714;9.472;2022-09-09T07:11:47;98121.78;;;16.56;100.00
6413;BME280;3239;48.714;9.472;2022-09-09T07:14:14;98132.97;;;16.65;100.00
6413;BME280;3239;48.714;9.472;2022-09-09T07:16:42;98122.34;;;16.54;100.00
6413;BME280;3239;48.714;9.472;2022-09-09T07:19:09;98127.19;;;16.71;100.00
6413;BME280;3239;48.714;9.472;2022-09-09T07:21:36;98125.88;;;17.13;100.00
6413;BME280;3239;48.714;9.472;2022-09-09T07:24:02;98106.34;;;17.72;100.00
6413;BME280;3239;48.714;9.472;2022-09-09T07:26:30;98085.81;;;16.97;100.00
6413;BME280;3239;48.714;9.472;2022-09-09T07:28:56;98098.22;;;16.89;100.00
6413;BME280;3239;48.714;9.472;2022-09-09T07:31:29;98086.34;;;17.30;100.00
6413;BME280;3239;48.714;9.472;2022-09-09T07:33:59;98082.88;;;17.29;100.00
6413;BME280;3239;48.714;9.472;2022-09-09T07:36:32;98097.94;;;17.53;100.00
6413;BME280;3239;48.714;9.472;2022-09-09T07:39:04;98099.50;;;17.73;100.00
6413;BME280;3239;48.714;9.472;2022-09-09T07:41:45;98095.50;;;17.40;100.00
6413;BME280;3239;48.714;9.472;2022-09-09T07:44:18;98097.06;;;18.39;100.00
6413;BME280;3239;48.714;9.472;2022-09-09T07:46:46;98068.53;;;18.65;100.00
6413;BME280;3239;48.714;9.472;2022-09-09T07:49:13;98045.50;;;19.39;100.00
6413;BME280;3239;48.714;9.472;2022-09-09T07:51:43;98020.50;;;19.20;100.00
6413;BME280;3239;48.714;9.472;2022-09-09T07:54:12;98014.19;;;18.53;100.00
6413;BME280;3239;48.714;9.472;2022-09-09T07:56:40;98027.06;;;18.86;100.00
6413;BME280;3239;48.714;9.472;2022-09-09T07:59:07;98033.22;;;18.30;100.00
6413;BME280;3239;48.714;9.472;2022-09-09T08:01:37;98044.09;;;18.09;100.00
6413;BME280;3239;48.714;9.472;2022-09-09T08:04:10;98048.78;;;18.42;100.00
6413;BME280;3239;48.714;9.472;2022-09-09T08:06:44;98033.28;;;18.39;100.00
6413;BME280;3239;48.714;9.472;2022-09-09T08:09:12;98047.09;;;18.94;100.00
6413;BME280;3239;48.714;9.472;2022-09-09T08:11:38;98025.22;;;19.76;100.00
6413;BME280;3239;48.714;9.472;2022-09-09T08:14:06;98016.34;;;21.23;100.00
6413;BME280;3239;48.714;9.472;2022-09-09T08:16:36;97982.16;;;22.58;100.00
6413;BME280;3239;48.714;9.472;2022-09-09T08:19:04;97962.34;;;22.43;100.00
6413;BME280;3239;48.714;9.472;2022-09-09T08:21:31;97953.63;;;22.60;100.00
6413;BME280;3239;48.714;9.472;2022-09-09T08:24:00;97961.91;;;21.66;100.00
6413;BME280;3239;48.714;9.472;2022-09-09T08:26:33;97979.78;;;20.54;100.00
6413;BME280;3239;48.714;9.472;2022-09-09T08:29:00;97989.38;;;20.83;100.00
6413;BME280;3239;48.714;9.472;2022-09-09T08:31:38;97990.72;;;20.40;100.00
6413;BME280;3239;48.714;9.472;2022-09-09T08:34:05;97969.69;;;22.13;100.00
6413;BME280;3239;48.714;9.472;2022-09-09T08:36:35;97951.34;;;22.22;100.00
6413;BME280;3239;48.714;9.472;2022-09-09T08:39:03;97943.63;;;21.74;100.00
6413;BME280;3239;48.714;9.472;2022-09-09T08:41:52;97949.75;;;23.15;100.00
6413;BME280;3239;48.714;9.472;2022-09-09T08:47:32;97940.59;;;23.26;100.00
6413;BME280;3239;48.714;9.472;2022-09-09T08:55:58;97934.47;;;24.49;100.00
6413;BME280;3239;48.714;9.472;2022-09-09T08:58:29;97934.16;;;24.70;100.00
6413;BME280;3239;48.714;9.472;2022-09-09T09:01:43;97924.94;;;23.59;100.00
6413;BME280;3239;48.714;9.472;2022-09-09T09:10:14;97924.97;;;25.12;100.00
6413;BME280;3239;48.714;9.472;2022-09-09T09:12:44;97927.56;;;23.96;100.00
6413;BME280;3239;48.714;9.472;2022-09-09T09:15:39;97928.25;;;23.56;100.00
6413;BME280;3239;48.714;9.472;2022-09-09T09:18:08;97924.41;;;23.49;100.00
6413;BME280;3239;48.714;9.472;2022-09-09T09:21:31;97931.53;;;22.89;100.00
6413;BME280;3239;48.714;9.472;2022-09-09T09:24:01;97923.22;;;23.27;100.00
6413;BME280;3239;48.714;9.472;2022-09-09T09:26:35;97922.03;;;23.57;100.00
6413;BME280;3239;48.714;9.472;2022-09-09T09:29:11;97911.81;;;23.23;100.00
6413;BME280;3239;48.714;9.472;2022-09-09T09:31:37;97908.53;;;22.29;100.00
6413;BME280;3239;48.714;9.472;2022-09-09T09:34:03;97921.78;;;21.82;100.00
6413;BME280;3239;48.714;9.472;2022-09-09T09:36:42;97926.72;;;21.49;100.00
6413;BME280;3239;48.714;9.472;2022-09-09T09:39:10;97920.91;;;21.57;100.00
6413;BME280;3239;48.714;9.472;2022-09-09T09:41:40;97918.88;;;21.92;100.00
6413;BME280;3239;48.714;9.472;2022-09-09T09:46:51;97916.63;;;22.84;100.00
6413;BME280;3239;48.714;9.472;2022-09-09T09:49:17;97901.88;;;24.13;100.00
6413;BME280;3239;48.714;9.472;2022-09-09T09:51:43;97897.81;;;25.30;100.00
6413;BME280;3239;48.714;9.472;2022-09-09T09:54:22;97889.53;;;24.74;93.30
6413;BME280;3239;48.714;9.472;2022-09-09T09:56:53;97882.63;;;24.90;89.71
6413;BME280;3239;48.714;9.472;2022-09-09T09:59:35;97879.53;;;24.84;90.41
6413;BME280;3239;48.714;9.472;2022-09-09T10:04:44;97875.50;;;25.03;90.57
6413;BME280;3239;48.714;9.472;2022-09-09T10:07:19;97865.19;;;24.92;84.14
6413;BME280;3239;48.714;9.472;2022-09-09T10:09:53;97856.50;;;25.17;83.00
6413;BME280;3239;48.714;9.472;2022-09-09T10:21:03;97858.41;;;25.12;74.60
6413;BME280;3239;48.714;9.472;2022-09-09T10:26:53;97858.88;;;26.00;61.30
6413;BME280;3239;48.714;9.472;2022-09-09T10:30:04;97834.22;;;26.31;58.01
6413;BME280;3239;48.714;9.472;2022-09-09T10:35:30;97856.38;;;24.55;66.07
6413;BME280;3239;48.714;9.472;2022-09-09T10:40:58;97850.28;;;22.85;78.08
6413;BME280;3239;48.714;9.472;2022-09-09T10:43:45;97858.09;;;24.19;77.11
6413;BME280;3239;48.714;9.472;2022-09-09T10:55:23;97846.97;;;25.68;51.66
6413;BME280;3239;48.714;9.472;2022-09-09T10:57:53;97841.34;;;24.48;59.92
6413;BME280;3239;48.714;9.472;2022-09-09T11:00:46;97846.41;;;24.09;59.86
6413;BME280;3239;48.714;9.472;2022-09-09T11:03:25;97842.97;;;25.73;58.61
6413;BME280;3239;48.714;9.472;2022-09-09T11:06:02;97845.72;;;24.96;57.61
6413;BME280;3239;48.714;9.472;2022-09-09T11:08:32;97834.38;;;26.35;54.93
6413;BME280;3239;48.714;9.472;2022-09-09T11:14:14;97836.47;;;24.06;61.14
6413;BME280;3239;48.714;9.472;2022-09-09T11:16:54;97825.69;;;23.60;65.71
6413;BME280;3239;48.714;9.472;2022-09-09T11:19:40;97818.75;;;23.75;69.37
6413;BME280;3239;48.714;9.472;2022-09-09T11:24:57;97826.41;;;24.01;65.09
6413;BME280;3239;48.714;9.472;2022-09-09T11:27:32;97827.19;;;24.31;65.75
6413;BME280;3239;48.714;9.472;2022-09-09T11:30:26;97802.13;;;24.48;57.38
6413;BME280;3239;48.714;9.472;2022-09-09T11:33:29;97799.50;;;25.74;58.14
6413;BME280;3239;48.714;9.472;2022-09-09T11:42:19;97811.13;;;22.71;69.64
6413;BME280;3239;48.714;9.472;2022-09-09T11:44:46;97838.66;;;22.52;75.29
6413;BME280;3239;48.714;9.472;2022-09-09T11:47:28;97872.69;;;21.77;100.00
6413;BME280;3239;48.714;9.472;2022-09-09T11:50:32;97927.00;;;22.59;100.00
6413;BME280;3239;48.714;9.472;2022-09-09T11:53:20;97933.28;;;22.11;100.00
6413;BME280;3239;48.714;9.472;2022-09-09T11:56:00;97969.97;;;21.39;100.00
6413;BME280;3239;48.714;9.472;2022-09-09T11:58:27;97981.81;;;20.95;100.00
6413;BME280;3239;48.714;9.472;2022-09-09T12:00:58;97996.06;;;20.69;100.00
6413;BME280;3239;48.714;9.472;2022-09-09T12:03:48;97999.47;;;20.46;100.00
6413;BME280;3239;48.714;9.472;2022-09-09T12:06:31;98007.41;;;20.10;100.00
6413;BME280;3239;48.714;9.472;2022-09-09T12:11:46;97992.81;;;21.58;100.00
6413;BME280;3239;48.714;9.472;2022-09-09T12:14:37;97946.50;;;22.22;100.00
6413;BME280;3239;48.714;9.472;2022-09-09T12:17:22;97931.00;;;22.08;100.00
6413;BME280;3239;48.714;9.472;2022-09-09T12:23:22;97926.16;;;21.97;100.00
6413;BME280;3239;48.714;9.472;2022-09-09T12:32:09;97897.63;;;23.98;100.00
6413;BME280;3239;48.714;9.472;2022-09-09T12:34:46;97878.31;;;23.77;100.00
6413;BME280;3239;48.714;9.472;2022-09-09T12:37:34;97877.31;;;22.94;100.00
6413;BME280;3239;48.714;9.472;2022-09-09T12:40:05;97869.53;;;23.83;100.00
6413;BME280;3239;48.714;9.472;2022-09-09T12:42:31;97869.78;;;23.21;100.00
6413;BME280;3239;48.714;9.472;2022-09-09T12:45:14;97862.19;;;24.03;100.00
6413;BME280;3239;48.714;9.472;2022-09-09T12:47:46;97863.00;;;24.48;100.00
6413;BME280;3239;48.714;9.472;2022-09-09T12:50:21;97852.00;;;23.69;95.06
6413;BME280;3239;48.714;9.472;2022-09-09T12:52:50;97849.50;;;23.61;91.55
6413;BME280;3239;48.714;9.472;2022-09-09T12:55:20;97858.84;;;23.52;84.80
6413;BME280;3239;48.714;9.472;2022-09-09T12:57:48;97846.63;;;23.86;86.68
6413;BME280;3239;48.714;9.472;2022-09-09T13:00:24;97838.75;;;24.52;82.69
6413;BME280;3239;48.714;9.472;2022-09-09T13:03:13;97843.22;;;23.74;74.95
6413;BME280;3239;48.714;9.472;2022-09-09T13:05:41;97829.09;;;23.72;75.74
6413;BME280;3239;48.714;9.472;2022-09-09T13:08:12;97821.94;;;24.10;71.10
6413;BME280;3239;48.714;9.472;2022-09-09T13:10:50;97825.03;;;24.16;76.33
6413;BME280;3239;48.714;9.472;2022-09-09T13:13:28;97821.38;;;24.69;72.27
6413;BME280;3239;48.714;9.472;2022-09-09T13:16:00;97822.88;;;25.17;71.93
6413;BME280;3239;48.714;9.472;2022-09-09T13:18:36;97821.50;;;24.87;69.67
6413;BME280;3239;48.714;9.472;2022-09-09T13:21:05;97820.84;;;24.73;63.64
6413;BME280;3239;48.714;9.472;2022-09-09T13:23:33;97826.00;;;23.93;63.44
6413;BME280;3239;48.714;9.472;2022-09-09T13:26:21;97814.78;;;24.20;66.49
6413;BME280;3239;48.714;9.472;2022-09-09T13:28:48;97807.34;;;23.84;66.49
6413;BME280;3239;48.714;9.472;2022-09-09T13:31:43;97807.97;;;22.90;68.34
6413;BME280;3239;48.714;9.472;2022-09-09T13:34:34;97804.31;;;22.74;69.66
6413;BME280;3239;48.714;9.472;2022-09-09T13:37:05;97810.00;;;23.15;72.89
6413;BME280;3239;48.714;9.472;2022-09-09T13:39:36;97811.03;;;23.08;71.60
6413;BME280;3239;48.714;9.472;2022-09-09T13:42:03;97799.81;;;23.46;71.43
6413;BME280;3239;48.714;9.472;2022-09-09T13:44:38;97795.75;;;23.36;68.46
6413;BME280;3239;48.714;9.472;2022-09-09T13:47:34;97796.69;;;23.27;70.70
6413;BME280;3239;48.714;9.472;2022-09-09T13:50:28;97815.31;;;23.22;69.46
6413;BME280;3239;48.714;9.472;2022-09-09T13:52:58;97798.91;;;23.17;66.08
6413;BME280;3239;48.714;9.472;2022-09-09T13:55:27;97798.00;;;23.80;64.63
6413;BME280;3239;48.714;9.472;2022-09-09T13:57:55;97799.81;;;23.60;62.18
6413;BME280;3239;48.714;9.472;2022-09-09T14:00:22;97797.31;;;23.79;63.12
6413;BME280;3239;48.714;9.472;2022-09-09T14:02:50;97807.16;;;24.36;64.59
6413;BME280;3239;48.714;9.472;2022-09-09T14:05:16;97803.63;;;23.66;64.14
6413;BME280;3239;48.714;9.472;2022-09-09T14:07:43;97791.41;;;23.33;69.03
6413;BME280;3239;48.714;9.472;2022-09-09T14:10:11;97800.31;;;23.56;68.52
6413;BME280;3239;48.714;9.472;2022-09-09T14:12:37;97799.69;;;22.92;72.79
6413;BME280;3239;48.714;9.472;2022-09-09T14:15:05;97803.94;;;23.32;73.59
6413;BME280;3239;48.714;9.472;2022-09-09T14:17:32;97797.94;;;23.37;73.18
6413;BME280;3239;48.714;9.472;2022-09-09T14:19:58;97796.25;;;24.42;69.51
6413;BME280;3239;48.714;9.472;2022-09-09T14:22:25;97785.91;;;24.60;64.22
6413;BME280;3239;48.714;9.472;2022-09-09T14:24:51;97781.34;;;25.13;59.19
6413;BME280;3239;48.714;9.472;2022-09-09T14:27:17;97792.25;;;24.61;57.37
6413;BME280;3239;48.714;9.472;2022-09-09T14:29:44;97795.63;;;24.01;59.06
6413;BME280;3239;48.714;9.472;2022-09-09T14:32:11;97788.53;;;24.27;57.60
6413;BME280;3239;48.714;9.472;2022-09-09T14:34:37;97794.31;;;23.75;57.58
6413;BME280;3239;48.714;9.472;2022-09-09T14:37:03;97791.56;;;23.10;59.36
6413;BME280;3239;48.714;9.472;2022-09-09T14:39:29;97786.09;;;23.12;60.73
6413;BME280;3239;48.714;9.472;2022-09-09T14:41:55;97787.94;;;23.07;60.54
6413;BME280;3239;48.714;9.472;2022-09-09T14:44:21;97785.00;;;23.71;60.40
6413;BME280;3239;48.714;9.472;2022-09-09T14:46:47;97774.66;;;25.05;54.94
6413;BME280;3239;48.714;9.472;2022-09-09T14:49:15;97778.59;;;26.10;52.81
6413;BME280;3239;48.714;9.472;2022-09-09T14:51:41;97780.63;;;26.60;48.88
6413;BME280;3239;48.714;9.472;2022-09-09T14:54:07;97779.13;;;25.74;48.70
6413;BME280;3239;48.714;9.472;2022-09-09T14:56:34;97770.50;;;25.37;47.08
6413;BME280;3239;48.714;9.472;2022-09-09T14:59:00;97788.69;;;24.89;49.33
6413;BME280;3239;48.714;9.472;2022-09-09T15:01:29;97786.25;;;25.13;48.60
6413;BME280;3239;48.714;9.472;2022-09-09T15:04:00;97779.56;;;26.52;46.60
6413;BME280;3239;48.714;9.472;2022-09-09T15:06:30;97781.47;;;28.19;41.94
6413;BME280;3239;48.714;9.472;2022-09-09T15:08:57;97783.38;;;27.52;39.73
6413;BME280;3239;48.714;9.472;2022-09-09T15:11:29;97790.81;;;24.60;45.40
6413;BME280;3239;48.714;9.472;2022-09-09T15:13:56;97766.78;;;25.63;44.30
6413;BME280;3239;48.714;9.472;2022-09-09T15:16:27;97771.94;;;25.53;46.80
6413;BME280;3239;48.714;9.472;2022-09-09T15:18:57;97776.69;;;28.23;41.21
6413;BME280;3239;48.714;9.472;2022-09-09T15:21:26;97775.06;;;28.59;37.89
6413;BME280;3239;48.714;9.472;2022-09-09T15:23:52;97767.38;;;30.11;37.10
6413;BME280;3239;48.714;9.472;2022-09-09T15:26:19;97772.50;;;27.42;39.30
6413;BME280;3239;48.714;9.472;2022-09-09T15:28:46;97767.28;;;26.08;43.15
6413;BME280;3239;48.714;9.472;2022-09-09T15:31:24;97777.75;;;23.66;46.95
6413;BME280;3239;48.714;9.472;2022-09-09T15:33:55;97763.66;;;23.23;50.63
6413;BME280;3239;48.714;9.472;2022-09-09T15:36:47;97778.28;;;22.83;53.46
6413;BME280;3239;48.714;9.472;2022-09-09T15:39:16;97766.53;;;22.60;54.76